sensor_id;sensor_type;location;lat;lon;timestamp;pressure;altitude;pressure_sealevel;temperature
74493;BMP180;62978;51.094;-115.362;2022-10-16T00:01:41;87551.00;;;16.00
74493;BMP180;62978;51.094;-115.362;2022-10-16T00:04:09;87551.60;;;15.66
74493;BMP180;62978;51.094;-115.362;2022-10-16T00:06:37;87555.00;;;15.32
74493;BMP180;62978;51.094;-115.362;2022-10-16T00:09:05;87555.00;;;15.00
74493;BMP180;62978;51.094;-115.362;2022-10-16T00:11:36;87553.20;;;14.70
74493;BMP180;62978;51.094;-115.362;2022-10-16T00:14:09;87555.80;;;14.40
74493;BMP180;62978;51.094;-115.362;2022-10-16T00:16:37;87555.80;;;14.12
74493;BMP180;62978;51.094;-115.362;2022-10-16T00:19:05;87559.00;;;13.80
74493;BMP180;62978;51.094;-115.362;2022-10-16T00:21:34;87563.00;;;13.50
74493;BMP180;62978;51.094;-115.362;2022-10-16T00:24:06;87569.60;;;13.30
74493;BMP180;62978;51.094;-115.362;2022-10-16T00:26:36;87567.60;;;13.00
74493;BMP180;62978;51.094;-115.362;2022-10-16T00:29:05;87573.40;;;12.80
74493;BMP180;62978;51.094;-115.362;2022-10-16T00:31:34;87573.20;;;12.58
74493;BMP180;62978;51.094;-115.362;2022-10-16T00:34:02;87583.40;;;12.30
74493;BMP180;62978;51.094;-115.362;2022-10-16T00:36:29;87584.80;;;12.10
74493;BMP180;62978;51.094;-115.362;2022-10-16T00:38:58;87582.60;;;11.80
74493;BMP180;62978;51.094;-115.362;2022-10-16T00:41:27;87587.60;;;11.60
74493;BMP180;62978;51.094;-115.362;2022-10-16T00:43:59;87593.60;;;11.40
74493;BMP180;62978;51.094;-115.362;2022-10-16T00:46:39;87588.80;;;11.20
74493;BMP180;62978;51.094;-115.362;2022-10-16T00:49:14;87589.80;;;11.00
74493;BMP180;62978;51.094;-115.362;2022-10-16T00:51:54;87586.00;;;10.84
74493;BMP180;62978;51.094;-115.362;2022-10-16T00:54:29;87586.80;;;10.60
74493;BMP180;62978;51.094;-115.362;2022-10-16T00:57:01;87589.60;;;10.50
74493;BMP180;62978;51.094;-115.362;2022-10-16T00:59:41;87586.60;;;10.30
74493;BMP180;62978;51.094;-115.362;2022-10-16T01:02:14;87585.60;;;10.16
74493;BMP180;62978;51.094;-115.362;2022-10-16T01:04:52;87587.20;;;10.00
74493;BMP180;62978;51.094;-115.362;2022-10-16T01:10:38;87595.80;;;9.70
74493;BMP180;62978;51.094;-115.362;2022-10-16T01:13:18;87600.00;;;9.50
74493;BMP180;62978;51.094;-115.362;2022-10-16T01:16:34;87596.40;;;9.40
74493;BMP180;62978;51.094;-115.362;2022-10-16T01:19:17;87606.20;;;9.20
74493;BMP180;62978;51.094;-115.362;2022-10-16T01:21:51;87610.60;;;9.06
74493;BMP180;62978;51.094;-115.362;2022-10-16T01:24:40;87618.20;;;8.90
74493;BMP180;62978;51.094;-115.362;2022-10-16T01:27:13;87618.20;;;8.80
74493;BMP180;62978;51.094;-115.362;2022-10-16T01:29:56;87621.80;;;8.70
74493;BMP180;62978;51.094;-115.362;2022-10-16T01:32:36;87623.20;;;8.50
74493;BMP180;62978;51.094;-115.362;2022-10-16T01:35:21;87622.20;;;8.40
74493;BMP180;62978;51.094;-115.362;2022-10-16T01:38:12;87627.80;;;8.30
74493;BMP180;62978;51.094;-115.362;2022-10-16T01:40:52;87629.40;;;8.20
74493;BMP180;62978;51.094;-115.362;2022-10-16T01:43:33;87629.00;;;8.08
74493;BMP180;62978;51.094;-115.362;2022-10-16T01:46:02;87628.40;;;7.92
74493;BMP180;62978;51.094;-115.362;2022-10-16T01:48:31;87627.40;;;7.80
74493;BMP180;62978;51.094;-115.362;2022-10-16T01:51:14;87630.20;;;7.70
74493;BMP180;62978;51.094;-115.362;2022-10-16T01:53:47;87634.00;;;7.60
74493;BMP180;62978;51.094;-115.362;2022-10-16T01:56:18;87633.60;;;7.50
74493;BMP180;62978;51.094;-115.362;2022-10-16T01:58:57;87638.00;;;7.40
74493;BMP180;62978;51.094;-115.362;2022-10-16T02:01:30;87632.60;;;7.30
74493;BMP180;62978;51.094;-115.362;2022-10-16T02:04:26;87636.00;;;7.20
74493;BMP180;62978;51.094;-115.362;2022-10-16T02:06:54;87637.80;;;7.10
74493;BMP180;62978;51.094;-115.362;2022-10-16T02:09:22;87643.80;;;7.00
74493;BMP180;62978;51.094;-115.362;2022-10-16T02:11:53;87645.60;;;6.90
74493;BMP180;62978;51.094;-115.362;2022-10-16T02:14:23;87646.00;;;6.80
74493;BMP180;62978;51.094;-115.362;2022-10-16T02:16:51;87650.20;;;6.70
74493;BMP180;62978;51.094;-115.362;2022-10-16T02:19:20;87651.00;;;6.60
74493;BMP180;62978;51.094;-115.362;2022-10-16T02:22:04;87651.20;;;6.54
74493;BMP180;62978;51.094;-115.362;2022-10-16T02:25:02;87655.60;;;6.46
74493;BMP180;62978;51.094;-115.362;2022-10-16T02:30:43;87672.20;;;6.30
74493;BMP180;62978;51.094;-115.362;2022-10-16T02:33:19;87675.00;;;6.10
74493;BMP180;62978;51.094;-115.362;2022-10-16T02:35:51;87680.80;;;6.02
74493;BMP180;62978;51.094;-115.362;2022-10-16T02:38:25;87688.40;;;6.00
74493;BMP180;62978;51.094;-115.362;2022-10-16T02:40:54;87688.80;;;5.90
74493;BMP180;62978;51.094;-115.362;2022-10-16T02:43:22;87695.40;;;5.80
74493;BMP180;62978;51.094;-115.362;2022-10-16T02:45:52;87698.40;;;5.80
74493;BMP180;62978;51.094;-115.362;2022-10-16T02:48:19;87698.20;;;5.70
74493;BMP180;62978;51.094;-115.362;2022-10-16T02:50:47;87703.40;;;5.60
74493;BMP180;62978;51.094;-115.362;2022-10-16T02:53:15;87710.20;;;5.56
74493;BMP180;62978;51.094;-115.362;2022-10-16T02:55:43;87707.60;;;5.50
74493;BMP180;62978;51.094;-115.362;2022-10-16T02:58:10;87709.00;;;5.40
74493;BMP180;62978;51.094;-115.362;2022-10-16T03:00:38;87710.20;;;5.30
74493;BMP180;62978;51.094;-115.362;2022-10-16T03:03:06;87711.20;;;5.24
74493;BMP180;62978;51.094;-115.362;2022-10-16T03:05:33;87714.00;;;5.20
74493;BMP180;62978;51.094;-115.362;2022-10-16T03:08:01;87718.20;;;5.10
74493;BMP180;62978;51.094;-115.362;2022-10-16T03:10:29;87718.40;;;5.00
74493;BMP180;62978;51.094;-115.362;2022-10-16T03:12:56;87717.00;;;4.98
74493;BMP180;62978;51.094;-115.362;2022-10-16T03:15:26;87720.60;;;4.90
74493;BMP180;62978;51.094;-115.362;2022-10-16T03:17:57;87723.00;;;4.80
74493;BMP180;62978;51.094;-115.362;2022-10-16T03:20:26;87725.20;;;4.80
74493;BMP180;62978;51.094;-115.362;2022-10-16T03:22:53;87730.80;;;4.70
74493;BMP180;62978;51.094;-115.362;2022-10-16T03:25:21;87729.60;;;4.60
74493;BMP180;62978;51.094;-115.362;2022-10-16T03:27:48;87728.00;;;4.60
74493;BMP180;62978;51.094;-115.362;2022-10-16T03:30:16;87725.80;;;4.50
74493;BMP180;62978;51.094;-115.362;2022-10-16T03:32:46;87728.40;;;4.50
74493;BMP180;62978;51.094;-115.362;2022-10-16T03:35:14;87729.40;;;4.40
74493;BMP180;62978;51.094;-115.362;2022-10-16T03:37:41;87730.80;;;4.30
74493;BMP180;62978;51.094;-115.362;2022-10-16T03:40:10;87733.20;;;4.30
74493;BMP180;62978;51.094;-115.362;2022-10-16T03:42:37;87734.60;;;4.20
74493;BMP180;62978;51.094;-115.362;2022-10-16T03:45:05;87737.20;;;4.20
74493;BMP180;62978;51.094;-115.362;2022-10-16T03:47:33;87738.60;;;4.10
74493;BMP180;62978;51.094;-115.362;2022-10-16T03:50:02;87747.00;;;4.10
74493;BMP180;62978;51.094;-115.362;2022-10-16T03:52:30;87744.00;;;4.00
74493;BMP180;62978;51.094;-115.362;2022-10-16T03:55:06;87747.20;;;4.00
74493;BMP180;62978;51.094;-115.362;2022-10-16T03:57:34;87748.20;;;3.90
74493;BMP180;62978;51.094;-115.362;2022-10-16T04:00:02;87743.20;;;3.88
74493;BMP180;62978;51.094;-115.362;2022-10-16T04:02:31;87759.00;;;3.80
74493;BMP180;62978;51.094;-115.362;2022-10-16T04:04:58;87754.40;;;3.80
74493;BMP180;62978;51.094;-115.362;2022-10-16T04:07:29;87755.80;;;3.70
74493;BMP180;62978;51.094;-115.362;2022-10-16T04:09:57;87761.60;;;3.66
74493;BMP180;62978;51.094;-115.362;2022-10-16T04:12:28;87758.60;;;3.60
74493;BMP180;62978;51.094;-115.362;2022-10-16T04:14:55;87757.20;;;3.52
74493;BMP180;62978;51.094;-115.362;2022-10-16T04:17:23;87760.60;;;3.50
74493;BMP180;62978;51.094;-115.362;2022-10-16T04:19:50;87760.00;;;3.42
74493;BMP180;62978;51.094;-115.362;2022-10-16T04:22:19;87758.60;;;3.40
74493;BMP180;62978;51.094;-115.362;2022-10-16T04:24:46;87761.80;;;3.40
74493;BMP180;62978;51.094;-115.362;2022-10-16T04:27:14;87761.00;;;3.50
74493;BMP180;62978;51.094;-115.362;2022-10-16T04:29:42;87769.80;;;3.50
74493;BMP180;62978;51.094;-115.362;2022-10-16T04:32:10;87773.20;;;3.50
74493;BMP180;62978;51.094;-115.362;2022-10-16T04:34:39;87777.80;;;3.60
74493;BMP180;62978;51.094;-115.362;2022-10-16T04:37:07;87781.00;;;3.60
74493;BMP180;62978;51.094;-115.362;2022-10-16T04:39:35;87777.00;;;3.58
74493;BMP180;62978;51.094;-115.362;2022-10-16T04:42:03;87781.20;;;3.50
74493;BMP180;62978;51.094;-115.362;2022-10-16T04:44:31;87784.20;;;3.50
74493;BMP180;62978;51.094;-115.362;2022-10-16T04:46:58;87778.20;;;3.46
74493;BMP180;62978;51.094;-115.362;2022-10-16T04:49:28;87776.00;;;3.40
74493;BMP180;62978;51.094;-115.362;2022-10-16T04:51:56;87781.00;;;3.30
74493;BMP180;62978;51.094;-115.362;2022-10-16T04:54:23;87783.20;;;3.28
74493;BMP180;62978;51.094;-115.362;2022-10-16T04:56:51;87778.00;;;3.20
74493;BMP180;62978;51.094;-115.362;2022-10-16T04:59:19;87779.20;;;3.18
74493;BMP180;62978;51.094;-115.362;2022-10-16T05:01:48;87782.40;;;3.10
74493;BMP180;62978;51.094;-115.362;2022-10-16T05:04:16;87784.00;;;3.00
74493;BMP180;62978;51.094;-115.362;2022-10-16T05:06:43;87779.80;;;2.94
74493;BMP180;62978;51.094;-115.362;2022-10-16T05:09:11;87784.60;;;2.88
74493;BMP180;62978;51.094;-115.362;2022-10-16T05:11:38;87778.20;;;2.80
74493;BMP180;62978;51.094;-115.362;2022-10-16T05:14:05;87779.60;;;2.80
74493;BMP180;62978;51.094;-115.362;2022-10-16T05:16:33;87780.00;;;2.70
74493;BMP180;62978;51.094;-115.362;2022-10-16T05:19:00;87779.20;;;2.70
74493;BMP180;62978;51.094;-115.362;2022-10-16T05:21:27;87780.00;;;2.60
74493;BMP180;62978;51.094;-115.362;2022-10-16T05:23:55;87781.60;;;2.50
74493;BMP180;62978;51.094;-115.362;2022-10-16T05:26:22;87784.80;;;2.50
74493;BMP180;62978;51.094;-115.362;2022-10-16T05:28:50;87788.40;;;2.40
74493;BMP180;62978;51.094;-115.362;2022-10-16T05:31:17;87791.80;;;2.40
74493;BMP180;62978;51.094;-115.362;2022-10-16T05:33:45;87790.60;;;2.30
74493;BMP180;62978;51.094;-115.362;2022-10-16T05:36:12;87793.20;;;2.30
74493;BMP180;62978;51.094;-115.362;2022-10-16T05:38:39;87794.80;;;2.20
74493;BMP180;62978;51.094;-115.362;2022-10-16T05:41:07;87797.80;;;2.20
74493;BMP180;62978;51.094;-115.362;2022-10-16T05:43:34;87797.60;;;2.10
74493;BMP180;62978;51.094;-115.362;2022-10-16T05:46:05;87793.00;;;2.10
74493;BMP180;62978;51.094;-115.362;2022-10-16T05:48:33;87795.60;;;2.10
74493;BMP180;62978;51.094;-115.362;2022-10-16T05:51:07;87800.20;;;2.16
74493;BMP180;62978;51.094;-115.362;2022-10-16T05:53:37;87796.20;;;2.20
74493;BMP180;62978;51.094;-115.362;2022-10-16T05:56:07;87796.20;;;2.20
74493;BMP180;62978;51.094;-115.362;2022-10-16T05:58:38;87798.60;;;2.20
74493;BMP180;62978;51.094;-115.362;2022-10-16T06:01:14;87804.60;;;2.20
74493;BMP180;62978;51.094;-115.362;2022-10-16T06:03:42;87801.40;;;2.20
74493;BMP180;62978;51.094;-115.362;2022-10-16T06:06:12;87804.60;;;2.20
74493;BMP180;62978;51.094;-115.362;2022-10-16T06:08:42;87801.60;;;2.20
74493;BMP180;62978;51.094;-115.362;2022-10-16T06:11:16;87803.80;;;2.20
74493;BMP180;62978;51.094;-115.362;2022-10-16T06:13:45;87808.80;;;2.10
74493;BMP180;62978;51.094;-115.362;2022-10-16T06:16:13;87809.40;;;2.06
74493;BMP180;62978;51.094;-115.362;2022-10-16T06:18:40;87809.60;;;2.00
74493;BMP180;62978;51.094;-115.362;2022-10-16T06:21:16;87810.40;;;1.90
74493;BMP180;62978;51.094;-115.362;2022-10-16T06:23:44;87817.00;;;1.90
74493;BMP180;62978;51.094;-115.362;2022-10-16T06:26:18;87818.80;;;1.86
74493;BMP180;62978;51.094;-115.362;2022-10-16T06:28:46;87820.60;;;1.80
74493;BMP180;62978;51.094;-115.362;2022-10-16T06:31:14;87828.20;;;1.80
74493;BMP180;62978;51.094;-115.362;2022-10-16T06:33:42;87819.40;;;1.70
74493;BMP180;62978;51.094;-115.362;2022-10-16T06:36:16;87827.20;;;1.70
74493;BMP180;62978;51.094;-115.362;2022-10-16T06:38:44;87824.40;;;1.70
74493;BMP180;62978;51.094;-115.362;2022-10-16T06:41:18;87830.00;;;1.70
74493;BMP180;62978;51.094;-115.362;2022-10-16T06:43:47;87831.20;;;1.70
74493;BMP180;62978;51.094;-115.362;2022-10-16T06:46:20;87835.20;;;1.70
74493;BMP180;62978;51.094;-115.362;2022-10-16T06:48:48;87837.00;;;1.80
74493;BMP180;62978;51.094;-115.362;2022-10-16T06:51:24;87835.60;;;1.80
74493;BMP180;62978;51.094;-115.362;2022-10-16T06:53:56;87836.20;;;1.88
74493;BMP180;62978;51.094;-115.362;2022-10-16T06:56:27;87842.60;;;1.82
74493;BMP180;62978;51.094;-115.362;2022-10-16T06:58:56;87845.80;;;1.90
74493;BMP180;62978;51.094;-115.362;2022-10-16T07:01:25;87845.40;;;1.82
74493;BMP180;62978;51.094;-115.362;2022-10-16T07:03:53;87851.40;;;1.80
74493;BMP180;62978;51.094;-115.362;2022-10-16T07:06:23;87854.40;;;1.76
74493;BMP180;62978;51.094;-115.362;2022-10-16T07:08:51;87854.80;;;1.70
74493;BMP180;62978;51.094;-115.362;2022-10-16T07:11:22;87857.40;;;1.62
74493;BMP180;62978;51.094;-115.362;2022-10-16T07:13:51;87865.80;;;1.60
74493;BMP180;62978;51.094;-115.362;2022-10-16T07:16:28;87863.60;;;1.56
74493;BMP180;62978;51.094;-115.362;2022-10-16T07:18:58;87864.00;;;1.50
74493;BMP180;62978;51.094;-115.362;2022-10-16T07:21:28;87867.20;;;1.50
74493;BMP180;62978;51.094;-115.362;2022-10-16T07:23:59;87863.40;;;1.42
74493;BMP180;62978;51.094;-115.362;2022-10-16T07:26:30;87861.60;;;1.40
74493;BMP180;62978;51.094;-115.362;2022-10-16T07:28:57;87864.00;;;1.32
74493;BMP180;62978;51.094;-115.362;2022-10-16T07:31:24;87866.00;;;1.30
74493;BMP180;62978;51.094;-115.362;2022-10-16T07:33:52;87868.80;;;1.22
74493;BMP180;62978;51.094;-115.362;2022-10-16T07:36:20;87868.00;;;1.20
74493;BMP180;62978;51.094;-115.362;2022-10-16T07:38:48;87866.00;;;1.20
74493;BMP180;62978;51.094;-115.362;2022-10-16T07:41:19;87867.00;;;1.20
74493;BMP180;62978;51.094;-115.362;2022-10-16T07:43:51;87865.40;;;1.26
74493;BMP180;62978;51.094;-115.362;2022-10-16T07:46:21;87866.40;;;1.30
74493;BMP180;62978;51.094;-115.362;2022-10-16T07:48:48;87867.00;;;1.30
74493;BMP180;62978;51.094;-115.362;2022-10-16T07:51:20;87863.80;;;1.30
74493;BMP180;62978;51.094;-115.362;2022-10-16T07:53:48;87868.80;;;1.30
74493;BMP180;62978;51.094;-115.362;2022-10-16T07:56:17;87864.40;;;1.20
74493;BMP180;62978;51.094;-115.362;2022-10-16T07:58:44;87863.60;;;1.20
74493;BMP180;62978;51.094;-115.362;2022-10-16T08:01:15;87865.60;;;1.20
74493;BMP180;62978;51.094;-115.362;2022-10-16T08:03:45;87868.40;;;1.10
74493;BMP180;62978;51.094;-115.362;2022-10-16T08:06:12;87868.00;;;1.10
74493;BMP180;62978;51.094;-115.362;2022-10-16T08:08:40;87867.80;;;1.00
74493;BMP180;62978;51.094;-115.362;2022-10-16T08:11:07;87869.60;;;1.00
74493;BMP180;62978;51.094;-115.362;2022-10-16T08:13:34;87871.40;;;0.90
74493;BMP180;62978;51.094;-115.362;2022-10-16T08:16:03;87870.00;;;0.90
74493;BMP180;62978;51.094;-115.362;2022-10-16T08:18:35;87868.80;;;0.80
74493;BMP180;62978;51.094;-115.362;2022-10-16T08:21:04;87872.00;;;0.80
74493;BMP180;62978;51.094;-115.362;2022-10-16T08:23:33;87875.60;;;0.80
74493;BMP180;62978;51.094;-115.362;2022-10-16T08:26:06;87871.20;;;0.80
74493;BMP180;62978;51.094;-115.362;2022-10-16T08:28:35;87877.00;;;0.80
74493;BMP180;62978;51.094;-115.362;2022-10-16T08:31:14;87884.20;;;0.80
74493;BMP180;62978;51.094;-115.362;2022-10-16T08:33:44;87880.00;;;0.90
74493;BMP180;62978;51.094;-115.362;2022-10-16T08:36:14;87887.80;;;0.90
74493;BMP180;62978;51.094;-115.362;2022-10-16T08:38:42;87888.20;;;0.90
74493;BMP180;62978;51.094;-115.362;2022-10-16T08:48:14;87884.40;;;0.80
74493;BMP180;62978;51.094;-115.362;2022-10-16T08:50:40;87891.60;;;0.70
74493;BMP180;62978;51.094;-115.362;2022-10-16T08:55:59;87891.20;;;0.60
74493;BMP180;62978;51.094;-115.362;2022-10-16T08:58:29;87894.80;;;0.56
74493;BMP180;62978;51.094;-115.362;2022-10-16T09:01:01;87889.80;;;0.50
74493;BMP180;62978;51.094;-115.362;2022-10-16T09:10:22;87892.80;;;0.32
74493;BMP180;62978;51.094;-115.362;2022-10-16T09:16:24;87893.80;;;0.20
74493;BMP180;62978;51.094;-115.362;2022-10-16T09:22:26;87901.20;;;0.30
74493;BMP180;62978;51.094;-115.362;2022-10-16T09:27:59;87883.20;;;0.38
74493;BMP180;62978;51.094;-115.362;2022-10-16T09:30:29;87892.00;;;0.38
74493;BMP180;62978;51.094;-115.362;2022-10-16T09:32:59;87891.60;;;0.40
74493;BMP180;62978;51.094;-115.362;2022-10-16T09:35:54;87889.60;;;0.40
74493;BMP180;62978;51.094;-115.362;2022-10-16T09:38:42;87885.00;;;0.40
74493;BMP180;62978;51.094;-115.362;2022-10-16T09:41:23;87892.40;;;0.40
74493;BMP180;62978;51.094;-115.362;2022-10-16T09:43:55;87889.00;;;0.30
74493;BMP180;62978;51.094;-115.362;2022-10-16T09:46:35;87897.00;;;0.30
74493;BMP180;62978;51.094;-115.362;2022-10-16T09:49:25;87891.40;;;0.30
74493;BMP180;62978;51.094;-115.362;2022-10-16T09:52:14;87888.40;;;0.30
74493;BMP180;62978;51.094;-115.362;2022-10-16T09:55:09;87888.60;;;0.20
74493;BMP180;62978;51.094;-115.362;2022-10-16T09:58:00;87883.60;;;0.20
74493;BMP180;62978;51.094;-115.362;2022-10-16T10:00:27;87884.20;;;0.10
74493;BMP180;62978;51.094;-115.362;2022-10-16T10:02:56;87886.40;;;0.10
74493;BMP180;62978;51.094;-115.362;2022-10-16T10:05:28;87883.80;;;0.02
74493;BMP180;62978;51.094;-115.362;2022-10-16T10:07:59;87883.40;;;0.00
74493;BMP180;62978;51.094;-115.362;2022-10-16T10:10:32;87885.40;;;0.00
74493;BMP180;62978;51.094;-115.362;2022-10-16T10:13:00;87882.40;;;0.00
74493;BMP180;62978;51.094;-115.362;2022-10-16T10:15:34;87891.80;;;0.00
74493;BMP180;62978;51.094;-115.362;2022-10-16T10:18:14;87883.20;;;0.00
74493;BMP180;62978;51.094;-115.362;2022-10-16T10:20:43;87884.20;;;0.04
74493;BMP180;62978;51.094;-115.362;2022-10-16T10:23:27;87884.40;;;0.10
74493;BMP180;62978;51.094;-115.362;2022-10-16T10:26:11;87883.00;;;0.10
74493;BMP180;62978;51.094;-115.362;2022-10-16T10:29:20;87886.00;;;0.10
74493;BMP180;62978;51.094;-115.362;2022-10-16T10:41:10;87882.80;;;0.00
74493;BMP180;62978;51.094;-115.362;2022-10-16T10:49:22;87883.00;;;-0.18
74493;BMP180;62978;51.094;-115.362;2022-10-16T10:53:17;87886.20;;;-0.20
74493;BMP180;62978;51.094;-115.362;2022-10-16T10:56:22;87884.40;;;-0.20
74493;BMP180;62978;51.094;-115.362;2022-10-16T10:59:08;87881.00;;;-0.30
74493;BMP180;62978;51.094;-115.362;2022-10-16T11:08:19;87880.20;;;-0.30
74493;BMP180;62978;51.094;-115.362;2022-10-16T11:11:43;87879.80;;;-0.30
74493;BMP180;62978;51.094;-115.362;2022-10-16T11:14:46;87872.60;;;-0.28
74493;BMP180;62978;51.094;-115.362;2022-10-16T11:20:02;87873.00;;;-0.20
74493;BMP180;62978;51.094;-115.362;2022-10-16T11:25:30;87873.00;;;-0.20
74493;BMP180;62978;51.094;-115.362;2022-10-16T11:28:23;87870.20;;;-0.20
74493;BMP180;62978;51.094;-115.362;2022-10-16T11:31:13;87869.80;;;-0.30
74493;BMP180;62978;51.094;-115.362;2022-10-16T11:34:28;87869.00;;;-0.30
74493;BMP180;62978;51.094;-115.362;2022-10-16T11:37:21;87863.80;;;-0.40
74493;BMP180;62978;51.094;-115.362;2022-10-16T11:39:54;87865.40;;;-0.40
74493;BMP180;62978;51.094;-115.362;2022-10-16T11:42:41;87861.60;;;-0.42
74493;BMP180;62978;51.094;-115.362;2022-10-16T11:45:39;87863.40;;;-0.50
74493;BMP180;62978;51.094;-115.362;2022-10-16T11:54:26;87859.40;;;-0.44
74493;BMP180;62978;51.094;-115.362;2022-10-16T11:57:05;87863.80;;;-0.40
74493;BMP180;62978;51.094;-115.362;2022-10-16T12:03:26;87864.20;;;-0.30
74493;BMP180;62978;51.094;-115.362;2022-10-16T12:08:52;87863.60;;;-0.28
74493;BMP180;62978;51.094;-115.362;2022-10-16T12:17:51;87856.80;;;-0.34
74493;BMP180;62978;51.094;-115.362;2022-10-16T12:22:54;87852.60;;;-0.50
74493;BMP180;62978;51.094;-115.362;2022-10-16T12:25:39;87858.00;;;-0.50
74493;BMP180;62978;51.094;-115.362;2022-10-16T12:31:02;87849.80;;;-0.60
74493;BMP180;62978;51.094;-115.362;2022-10-16T12:33:35;87847.20;;;-0.62
74493;BMP180;62978;51.094;-115.362;2022-10-16T12:36:13;87849.60;;;-0.60
74493;BMP180;62978;51.094;-115.362;2022-10-16T12:38:52;87849.60;;;-0.60
74493;BMP180;62978;51.094;-115.362;2022-10-16T12:41:35;87853.60;;;-0.60
74493;BMP180;62978;51.094;-115.362;2022-10-16T12:44:24;87862.00;;;-0.60
74493;BMP180;62978;51.094;-115.362;2022-10-16T12:46:53;87858.80;;;-0.50
74493;BMP180;62978;51.094;-115.362;2022-10-16T12:49:36;87866.20;;;-0.50
74493;BMP180;62978;51.094;-115.362;2022-10-16T12:52:04;87870.00;;;-0.50
74493;BMP180;62978;51.094;-115.362;2022-10-16T12:54:39;87869.40;;;-0.50
74493;BMP180;62978;51.094;-115.362;2022-10-16T12:57:23;87865.80;;;-0.50
74493;BMP180;62978;51.094;-115.362;2022-10-16T13:00:28;87867.20;;;-0.50
74493;BMP180;62978;51.094;-115.362;2022-10-16T13:06:38;87864.00;;;-0.60
74493;BMP180;62978;51.094;-115.362;2022-10-16T13:14:57;87867.80;;;-0.76
74493;BMP180;62978;51.094;-115.362;2022-10-16T13:18:13;87867.00;;;-0.80
74493;BMP180;62978;51.094;-115.362;2022-10-16T13:21:31;87865.20;;;-0.80
74493;BMP180;62978;51.094;-115.362;2022-10-16T13:30:01;87860.00;;;-0.70
74493;BMP180;62978;51.094;-115.362;2022-10-16T13:32:30;87859.00;;;-0.60
74493;BMP180;62978;51.094;-115.362;2022-10-16T13:34:58;87860.60;;;-0.56
74493;BMP180;62978;51.094;-115.362;2022-10-16T13:37:27;87854.40;;;-0.54
74493;BMP180;62978;51.094;-115.362;2022-10-16T13:40:20;87851.00;;;-0.56
74493;BMP180;62978;51.094;-115.362;2022-10-16T13:42:48;87853.40;;;-0.58
74493;BMP180;62978;51.094;-115.362;2022-10-16T13:45:22;87849.60;;;-0.60
74493;BMP180;62978;51.094;-115.362;2022-10-16T13:47:49;87840.60;;;-0.60
74493;BMP180;62978;51.094;-115.362;2022-10-16T13:50:18;87843.40;;;-0.66
74493;BMP180;62978;51.094;-115.362;2022-10-16T13:52:46;87841.60;;;-0.66
74493;BMP180;62978;51.094;-115.362;2022-10-16T13:55:18;87842.80;;;-0.70
74493;BMP180;62978;51.094;-115.362;2022-10-16T13:57:46;87845.00;;;-0.70
74493;BMP180;62978;51.094;-115.362;2022-10-16T14:00:25;87846.40;;;-0.70
74493;BMP180;62978;51.094;-115.362;2022-10-16T14:03:06;87844.80;;;-0.70
74493;BMP180;62978;51.094;-115.362;2022-10-16T14:05:35;87839.00;;;-0.64
74493;BMP180;62978;51.094;-115.362;2022-10-16T14:08:02;87839.60;;;-0.60
74493;BMP180;62978;51.094;-115.362;2022-10-16T14:10:32;87843.20;;;-0.50
74493;BMP180;62978;51.094;-115.362;2022-10-16T14:13:12;87837.60;;;-0.36
74493;BMP180;62978;51.094;-115.362;2022-10-16T14:15:51;87837.40;;;-0.20
74493;BMP180;62978;51.094;-115.362;2022-10-16T14:18:23;87837.20;;;-0.10
74493;BMP180;62978;51.094;-115.362;2022-10-16T14:20:52;87840.20;;;-0.10
74493;BMP180;62978;51.094;-115.362;2022-10-16T14:25:47;87844.80;;;-0.10
74493;BMP180;62978;51.094;-115.362;2022-10-16T14:28:22;87851.40;;;-0.16
74493;BMP180;62978;51.094;-115.362;2022-10-16T14:30:56;87849.40;;;-0.20
74493;BMP180;62978;51.094;-115.362;2022-10-16T14:33:33;87851.80;;;-0.20
74493;BMP180;62978;51.094;-115.362;2022-10-16T14:36:19;87847.40;;;-0.20
74493;BMP180;62978;51.094;-115.362;2022-10-16T14:39:20;87854.60;;;-0.30
74493;BMP180;62978;51.094;-115.362;2022-10-16T14:41:51;87853.80;;;-0.30
74493;BMP180;62978;51.094;-115.362;2022-10-16T14:44:24;87850.20;;;-0.30
74493;BMP180;62978;51.094;-115.362;2022-10-16T14:46:53;87850.40;;;-0.30
74493;BMP180;62978;51.094;-115.362;2022-10-16T14:49:22;87857.00;;;-0.30
74493;BMP180;62978;51.094;-115.362;2022-10-16T14:51:50;87852.40;;;-0.20
74493;BMP180;62978;51.094;-115.362;2022-10-16T14:54:19;87851.20;;;-0.18
74493;BMP180;62978;51.094;-115.362;2022-10-16T14:59:40;87843.60;;;0.02
74493;BMP180;62978;51.094;-115.362;2022-10-16T15:02:35;87848.00;;;0.10
74493;BMP180;62978;51.094;-115.362;2022-10-16T15:07:46;87850.20;;;0.20
74493;BMP180;62978;51.094;-115.362;2022-10-16T15:10:14;87846.60;;;0.26
74493;BMP180;62978;51.094;-115.362;2022-10-16T15:12:42;87848.20;;;0.30
74493;BMP180;62978;51.094;-115.362;2022-10-16T15:15:38;87847.80;;;0.40
74493;BMP180;62978;51.094;-115.362;2022-10-16T15:18:07;87847.20;;;0.54
74493;BMP180;62978;51.094;-115.362;2022-10-16T15:20:37;87857.00;;;0.62
74493;BMP180;62978;51.094;-115.362;2022-10-16T15:23:16;87849.80;;;0.70
74493;BMP180;62978;51.094;-115.362;2022-10-16T15:25:53;87853.60;;;0.86
74493;BMP180;62978;51.094;-115.362;2022-10-16T15:28:23;87851.60;;;1.00
74493;BMP180;62978;51.094;-115.362;2022-10-16T15:30:53;87851.80;;;1.20
74493;BMP180;62978;51.094;-115.362;2022-10-16T15:33:25;87850.20;;;1.30
74493;BMP180;62978;51.094;-115.362;2022-10-16T15:35:55;87849.40;;;1.48
74493;BMP180;62978;51.094;-115.362;2022-10-16T15:38:23;87846.40;;;1.70
74493;BMP180;62978;51.094;-115.362;2022-10-16T15:40:50;87846.80;;;1.82
74493;BMP180;62978;51.094;-115.362;2022-10-16T15:43:18;87846.20;;;1.96
74493;BMP180;62978;51.094;-115.362;2022-10-16T15:46:05;87850.60;;;2.00
74493;BMP180;62978;51.094;-115.362;2022-10-16T15:48:33;87845.60;;;2.10
74493;BMP180;62978;51.094;-115.362;2022-10-16T15:51:05;87839.00;;;2.20
74493;BMP180;62978;51.094;-115.362;2022-10-16T15:53:33;87843.20;;;2.30
74493;BMP180;62978;51.094;-115.362;2022-10-16T15:56:09;87835.80;;;2.40
74493;BMP180;62978;51.094;-115.362;2022-10-16T15:58:38;87840.20;;;2.50
74493;BMP180;62978;51.094;-115.362;2022-10-16T16:01:05;87837.00;;;2.60
74493;BMP180;62978;51.094;-115.362;2022-10-16T16:03:34;87842.00;;;2.70
74493;BMP180;62978;51.094;-115.362;2022-10-16T16:06:09;87834.60;;;2.80